Time;durP1;ratioP1;P1;durP2;ratioP2;P2;SDS_P1;SDS_P2;PMS_P1;PMS_P2;Temp;Humidity;BMP_temperature;BMP_pressure;BME280_temperature;BME280_humidity;BME280_pressure;Samples;Min_cycle;Max_cycle;Signal;HPM_P1;HPM_P2
2023/06/25 00:01:05;;;;;;;37.03;34.83;;;25.50;99.90;;;;;;4993469;28;20030;-74
2023/06/25 00:03:32;;;;;;;33.35;31.20;;;25.40;99.90;;;;;;4994226;28;20043;-73
2023/06/25 00:05:58;;;;;;;26.40;24.50;;;25.30;99.90;;;;;;4995361;28;20038;-74
2023/06/25 00:08:24;;;;;;;24.17;22.48;;;25.30;99.90;;;;;;4995635;28;20357;-74
2023/06/25 00:10:50;;;;;;;24.65;22.88;;;25.30;99.90;;;;;;5010236;28;20030;-74
2023/06/25 00:13:16;;;;;;;20.67;19.38;;;25.40;99.90;;;;;;4995214;28;20372;-74
2023/06/25 00:15:42;;;;;;;27.75;26.00;;;25.30;99.90;;;;;;5009832;28;20045;-73
2023/06/25 00:18:08;;;;;;;32.22;30.38;;;25.30;99.90;;;;;;5010418;28;20468;-74
2023/06/25 00:20:34;;;;;;;26.65;24.95;;;25.30;99.90;;;;;;5010049;28;20030;-74
2023/06/25 00:23:00;;;;;;;21.17;19.38;;;25.30;99.90;;;;;;4995498;28;20061;-73
2023/06/25 00:25:27;;;;;;;24.08;22.33;;;25.20;99.90;;;;;;4994817;28;20041;-74
2023/06/25 00:27:57;;;;;;;21.77;20.25;;;25.20;99.90;;;;;;4994952;28;20372;-74
2023/06/25 00:30:23;;;;;;;21.10;19.40;;;25.10;99.90;;;;;;4993355;28;20030;-74
2023/06/25 00:32:54;;;;;;;21.75;20.35;;;25.10;99.90;;;;;;4995306;28;20022;-74
2023/06/25 00:35:24;;;;;;;20.80;19.10;;;25.10;99.90;;;;;;4976916;28;20480;-74
2023/06/25 00:37:50;;;;;;;19.13;17.83;;;25.00;99.90;;;;;;5005907;28;20038;-74
2023/06/25 00:40:17;;;;;;;19.17;17.67;;;25.00;99.90;;;;;;5007545;28;20035;-73
2023/06/25 00:42:44;;;;;;;19.70;18.25;;;25.00;99.90;;;;;;4994540;28;20023;-74
2023/06/25 00:45:12;;;;;;;19.65;18.05;;;24.90;99.90;;;;;;5009083;28;20476;-74
2023/06/25 00:47:41;;;;;;;18.98;17.58;;;24.90;99.90;;;;;;4994749;28;20037;-74
2023/06/25 00:50:11;;;;;;;21.60;20.02;;;24.80;99.90;;;;;;4993469;28;20050;-74
2023/06/25 00:52:38;;;;;;;22.92;21.33;;;24.70;99.90;;;;;;4973363;28;20400;-74
2023/06/25 00:55:04;;;;;;;25.40;23.80;;;24.80;99.90;;;;;;5005621;28;20034;-74
2023/06/25 00:57:30;;;;;;;16.33;15.02;;;24.80;99.90;;;;;;4993669;28;20057;-74
2023/06/25 00:59:56;;;;;;;15.32;14.13;;;24.70;99.90;;;;;;4994461;28;20030;-74
2023/06/25 01:02:35;;;;;;;17.05;15.73;;;24.70;99.90;;;;;;5008561;28;20026;-74
2023/06/25 01:05:11;;;;;;;17.98;16.67;;;24.80;99.90;;;;;;5009217;28;20038;-74
2023/06/25 01:07:38;;;;;;;18.67;17.23;;;24.80;99.90;;;;;;5008611;28;20042;-74
2023/06/25 01:10:05;;;;;;;19.67;18.05;;;24.80;99.90;;;;;;5009503;28;20475;-74
2023/06/25 01:12:31;;;;;;;20.45;18.98;;;24.80;99.90;;;;;;5008585;28;20026;-74
2023/06/25 01:14:59;;;;;;;21.02;19.63;;;24.70;99.90;;;;;;4994445;28;20046;-73
2023/06/25 01:17:26;;;;;;;20.85;19.38;;;24.70;99.90;;;;;;5008517;28;20041;-74
2023/06/25 01:19:52;;;;;;;21.75;20.13;;;24.60;99.90;;;;;;5009201;28;20034;-74
2023/06/25 01:22:28;;;;;;;23.17;21.52;;;24.50;99.90;;;;;;5008931;28;20034;-74
2023/06/25 01:24:54;;;;;;;22.17;20.70;;;24.50;99.90;;;;;;5008591;28;20034;-74
2023/06/25 01:27:21;;;;;;;24.60;22.92;;;24.50;99.90;;;;;;4993738;28;20048;-74
2023/06/25 01:29:48;;;;;;;24.92;23.13;;;24.50;99.90;;;;;;5008968;28;20022;-74
2023/06/25 01:32:15;;;;;;;27.10;25.20;;;24.40;99.90;;;;;;5007890;28;20101;-74
2023/06/25 01:34:41;;;;;;;30.13;28.05;;;24.20;99.90;;;;;;4994062;28;20022;-74
2023/06/25 01:37:07;;;;;;;27.52;25.83;;;23.90;99.90;;;;;;4993896;28;20391;-74
2023/06/25 01:39:33;;;;;;;28.42;26.52;;;23.60;99.90;;;;;;5009005;28;20030;-73
2023/06/25 01:41:59;;;;;;;26.63;24.77;;;23.60;99.90;;;;;;4997101;28;20030;-74
2023/06/25 01:44:29;;;;;;;30.75;28.83;;;23.70;99.90;;;;;;4993712;28;20026;-74
2023/06/25 01:46:56;;;;;;;36.08;33.47;;;23.80;99.90;;;;;;5007803;28;20057;-74
2023/06/25 01:49:22;;;;;;;39.83;37.00;;;23.90;99.90;;;;;;4993382;28;20439;-74
2023/06/25 01:51:48;;;;;;;42.13;39.70;;;23.90;99.90;;;;;;4992197;28;20037;-74
2023/06/25 01:54:14;;;;;;;34.22;32.22;;;24.00;99.90;;;;;;5008488;28;20053;-74
2023/06/25 01:56:41;;;;;;;34.50;32.45;;;24.00;99.90;;;;;;4993301;28;20054;-74
2023/06/25 01:59:07;;;;;;;25.80;24.08;;;24.00;99.90;;;;;;4992834;28;20042;-74
2023/06/25 02:01:34;;;;;;;28.00;26.30;;;24.00;99.90;;;;;;5005544;28;20041;-74
2023/06/25 02:04:00;;;;;;;27.08;25.35;;;24.00;99.90;;;;;;4985293;28;20022;-74
2023/06/25 02:06:26;;;;;;;26.95;25.17;;;24.00;99.90;;;;;;4990095;28;20038;-74
2023/06/25 02:08:52;;;;;;;24.95;23.30;;;24.00;99.90;;;;;;5006851;28;20030;-73
2023/06/25 02:11:18;;;;;;;25.77;24.05;;;24.00;99.90;;;;;;5006827;28;20038;-74
2023/06/25 02:13:44;;;;;;;27.02;25.33;;;24.00;99.90;;;;;;4987089;28;20093;-74
2023/06/25 02:16:10;;;;;;;27.00;25.20;;;23.80;99.90;;;;;;4980006;28;20514;-74
2023/06/25 02:18:37;;;;;;;23.63;22.02;;;23.60;99.90;;;;;;5007001;28;20464;-74
2023/06/25 02:21:03;;;;;;;25.58;23.98;;;23.50;99.90;;;;;;5006503;28;20023;-74
2023/06/25 02:23:29;;;;;;;25.15;23.23;;;23.30;99.90;;;;;;4991510;28;20030;-74
2023/06/25 02:25:55;;;;;;;23.98;22.35;;;23.20;99.90;;;;;;5006514;28;20372;-74
2023/06/25 02:28:21;;;;;;;25.75;23.95;;;23.20;99.90;;;;;;5007098;28;20038;-74
2023/06/25 02:30:47;;;;;;;26.10;24.42;;;23.20;99.90;;;;;;4991043;28;20411;-74
2023/06/25 02:33:13;;;;;;;24.02;22.35;;;23.20;99.90;;;;;;4991758;28;20023;-74
2023/06/25 02:35:40;;;;;;;24.42;22.63;;;23.00;99.90;;;;;;4991494;28;20395;-74
2023/06/25 02:38:06;;;;;;;24.45;22.85;;;22.90;99.90;;;;;;5005317;28;20037;-74
2023/06/25 02:40:32;;;;;;;22.27;20.67;;;22.80;99.90;;;;;;4974923;28;20411;-74
2023/06/25 02:42:58;;;;;;;22.55;20.73;;;22.90;99.90;;;;;;4991932;28;20043;-74
2023/06/25 02:45:24;;;;;;;24.45;22.80;;;23.00;99.90;;;;;;5007230;28;20070;-74
2023/06/25 02:47:50;;;;;;;24.50;22.50;;;23.10;99.90;;;;;;5007685;28;20037;-74
2023/06/25 02:50:17;;;;;;;27.10;25.42;;;23.10;99.90;;;;;;4992427;28;20027;-75
2023/06/25 02:52:43;;;;;;;24.67;23.08;;;23.00;99.90;;;;;;5007741;28;20392;-74
2023/06/25 02:55:09;;;;;;;25.17;23.60;;;22.90;99.90;;;;;;5007682;28;20026;-74
2023/06/25 02:57:35;;;;;;;24.65;23.13;;;22.80;99.90;;;;;;4973543;28;20035;-74
2023/06/25 03:00:04;;;;;;;23.63;21.92;;;22.70;99.90;;;;;;5004775;28;20034;-74
2023/06/25 03:02:30;;;;;;;21.95;20.35;;;22.80;99.90;;;;;;5005855;28;20038;-74
2023/06/25 03:04:56;;;;;;;23.60;22.00;;;22.80;99.90;;;;;;5008130;28;20037;-73
2023/06/25 03:07:23;;;;;;;24.27;22.65;;;22.80;99.90;;;;;;4991972;28;20498;-75
2023/06/25 03:09:49;;;;;;;20.85;19.20;;;22.80;99.90;;;;;;4992881;28;20029;-75
2023/06/25 03:12:15;;;;;;;23.23;21.42;;;22.80;99.90;;;;;;4992255;28;20047;-74
2023/06/25 03:14:41;;;;;;;22.38;20.88;;;22.80;99.90;;;;;;5008086;28;20379;-74
2023/06/25 03:17:07;;;;;;;22.23;20.83;;;22.90;99.90;;;;;;5008454;28;20483;-74
2023/06/25 03:19:33;;;;;;;20.92;19.35;;;22.90;99.90;;;;;;4996569;28;20027;-73
2023/06/25 03:21:59;;;;;;;19.67;18.30;;;22.90;99.90;;;;;;4995794;28;20038;-74
2023/06/25 03:24:25;;;;;;;21.05;19.45;;;22.90;99.90;;;;;;4994878;28;20479;-74
2023/06/25 03:26:52;;;;;;;22.38;20.85;;;22.80;99.90;;;;;;5011276;28;20046;-73
2023/06/25 03:29:18;;;;;;;21.08;19.58;;;22.80;99.90;;;;;;4996490;28;20053;-74
2023/06/25 03:31:44;;;;;;;20.15;18.77;;;22.90;99.90;;;;;;5010522;28;20030;-74
2023/06/25 03:34:10;;;;;;;18.63;17.23;;;22.80;99.90;;;;;;4996202;28;20030;-74
2023/06/25 03:36:36;;;;;;;19.40;18.02;;;22.70;99.90;;;;;;4995295;28;20034;-74
2023/06/25 03:39:02;;;;;;;20.85;19.45;;;22.70;99.90;;;;;;5011315;28;20495;-74
2023/06/25 03:41:29;;;;;;;22.67;21.08;;;22.80;99.90;;;;;;4995901;28;20365;-74
2023/06/25 03:43:55;;;;;;;25.75;23.88;;;22.80;99.90;;;;;;4995984;28;20026;-74
2023/06/25 03:46:21;;;;;;;24.95;23.30;;;22.80;99.90;;;;;;4995212;28;20046;-74
2023/06/25 03:48:47;;;;;;;20.17;18.83;;;22.70;99.90;;;;;;4995684;28;20377;-74
2023/06/25 03:51:13;;;;;;;33.75;31.75;;;22.80;99.90;;;;;;4995547;28;20030;-74
2023/06/25 03:53:39;;;;;;;31.65;29.25;;;22.80;99.90;;;;;;4995949;28;20384;-74
2023/06/25 03:56:06;;;;;;;31.00;29.08;;;22.70;99.90;;;;;;4995401;28;20045;-74
2023/06/25 03:58:33;;;;;;;24.55;23.00;;;22.80;99.90;;;;;;4995766;28;20033;-74
2023/06/25 04:00:59;;;;;;;25.15;23.20;;;22.80;99.90;;;;;;5009718;28;20038;-74
2023/06/25 04:03:25;;;;;;;33.53;31.35;;;22.80;99.90;;;;;;4995733;28;20037;-74
2023/06/25 04:05:51;;;;;;;24.83;23.10;;;22.70;99.90;;;;;;4995046;28;20030;-74
2023/06/25 04:08:17;;;;;;;17.52;16.33;;;22.70;99.90;;;;;;4995441;28;20038;-74
2023/06/25 04:10:43;;;;;;;17.10;15.90;;;22.40;99.90;;;;;;4995454;28;20045;-74
2023/06/25 04:13:10;;;;;;;23.75;21.80;;;22.40;99.90;;;;;;4995556;28;20034;-74
2023/06/25 04:15:36;;;;;;;23.40;21.92;;;22.40;99.90;;;;;;5009773;28;20034;-74
2023/06/25 04:18:02;;;;;;;23.15;21.65;;;22.30;99.90;;;;;;4995402;28;20034;-74
2023/06/25 04:20:28;;;;;;;20.50;18.60;;;22.40;99.90;;;;;;4994376;28;20041;-74
2023/06/25 04:22:54;;;;;;;20.10;18.67;;;22.40;99.90;;;;;;4995431;28;20027;-74
2023/06/25 04:25:21;;;;;;;21.13;19.63;;;22.40;99.90;;;;;;5010047;28;20037;-74
2023/06/25 04:27:47;;;;;;;19.42;18.08;;;22.40;99.90;;;;;;4994856;28;20051;-74
2023/06/25 04:30:14;;;;;;;18.48;17.20;;;22.40;99.90;;;;;;5009253;28;20035;-74
2023/06/25 04:32:40;;;;;;;18.00;16.70;;;22.30;99.90;;;;;;4995289;28;20030;-75
2023/06/25 04:35:06;;;;;;;20.38;18.88;;;22.20;99.90;;;;;;4994593;28;20026;-74
2023/06/25 04:37:32;;;;;;;21.38;19.77;;;22.30;99.90;;;;;;4994363;28;20049;-74
2023/06/25 04:40:00;;;;;;;20.63;19.23;;;22.30;99.90;;;;;;4994942;28;20468;-74
2023/06/25 04:42:26;;;;;;;21.25;19.75;;;22.40;99.90;;;;;;4994729;28;20042;-74
2023/06/25 04:44:52;;;;;;;20.50;19.02;;;22.40;99.90;;;;;;4994907;28;20022;-73
2023/06/25 04:47:18;;;;;;;21.05;19.60;;;22.50;99.90;;;;;;4993984;28;20053;-74
2023/06/25 04:49:44;;;;;;;21.92;20.40;;;22.40;99.90;;;;;;4994217;28;20050;-74
2023/06/25 04:52:18;;;;;;;25.13;23.42;;;22.40;99.90;;;;;;4994620;28;20626;-75
2023/06/25 04:54:47;;;;;;;23.08;21.45;;;22.40;99.90;;;;;;4994691;28;20046;-74
2023/06/25 04:57:13;;;;;;;23.13;21.33;;;22.50;99.90;;;;;;4994420;28;20041;-74
2023/06/25 04:59:39;;;;;;;18.25;16.90;;;22.70;99.90;;;;;;4994771;28;20037;-74
2023/06/25 05:02:05;;;;;;;18.45;17.15;;;22.70;99.90;;;;;;4993824;28;20488;-74
2023/06/25 05:04:31;;;;;;;18.80;17.33;;;22.50;99.90;;;;;;5009352;28;20391;-74
2023/06/25 05:06:58;;;;;;;18.75;17.25;;;22.50;99.90;;;;;;5009370;28;20053;-74
2023/06/25 05:09:24;;;;;;;20.30;19.05;;;22.60;99.90;;;;;;4993203;28;20054;-74
2023/06/25 05:11:50;;;;;;;20.48;18.83;;;22.70;99.90;;;;;;5009305;28;20415;-74
2023/06/25 05:14:17;;;;;;;17.88;16.50;;;22.80;99.90;;;;;;4993004;28;20034;-74
2023/06/25 05:16:43;;;;;;;16.13;14.68;;;23.10;99.90;;;;;;4993526;28;20039;-70
2023/06/25 05:19:09;;;;;;;15.25;14.15;;;23.20;99.90;;;;;;4994161;28;20030;-74
2023/06/25 05:21:35;;;;;;;15.95;14.80;;;23.40;99.90;;;;;;5009006;28;20042;-74
2023/06/25 05:24:01;;;;;;;16.75;15.45;;;23.60;99.90;;;;;;5009251;28;20034;-74
2023/06/25 05:26:28;;;;;;;16.63;15.32;;;23.60;99.90;;;;;;5008011;28;20089;-74
2023/06/25 05:28:54;;;;;;;16.80;15.45;;;23.60;99.90;;;;;;4994091;28;20379;-73
2023/06/25 05:31:20;;;;;;;18.80;17.08;;;23.70;99.90;;;;;;5008052;28;20395;-74
2023/06/25 05:33:46;;;;;;;18.10;16.88;;;23.80;99.90;;;;;;4993860;28;20034;-74
2023/06/25 05:36:12;;;;;;;17.65;16.35;;;23.90;99.90;;;;;;4993693;28;20031;-73
2023/06/25 05:38:38;;;;;;;16.65;15.40;;;23.90;99.90;;;;;;5008978;28;20027;-74
2023/06/25 05:41:04;;;;;;;18.08;16.73;;;23.90;99.90;;;;;;4993040;28;20034;-74
2023/06/25 05:43:31;;;;;;;17.65;16.23;;;24.00;99.90;;;;;;4992545;28;20041;-74
2023/06/25 05:45:57;;;;;;;17.95;16.45;;;23.90;99.90;;;;;;4990911;28;20082;-74
2023/06/25 05:48:23;;;;;;;17.92;16.52;;;23.70;99.90;;;;;;5008484;28;20050;-74
2023/06/25 05:50:49;;;;;;;17.60;16.30;;;23.80;99.90;;;;;;5008233;28;20403;-75
2023/06/25 05:53:15;;;;;;;16.35;15.15;;;23.90;99.90;;;;;;4993672;28;20181;-74
2023/06/25 05:55:42;;;;;;;17.15;15.63;;;24.00;99.90;;;;;;4992122;28;20038;-74
2023/06/25 05:58:08;;;;;;;17.77;16.58;;;24.20;99.90;;;;;;5008579;28;20022;-74
2023/06/25 06:00:34;;;;;;;17.73;16.60;;;24.30;99.90;;;;;;4992586;28;20054;-74
2023/06/25 06:03:00;;;;;;;18.60;17.40;;;24.30;99.90;;;;;;4993281;28;20023;-74
2023/06/25 06:05:26;;;;;;;20.15;18.45;;;24.40;99.90;;;;;;5008229;28;20026;-74
2023/06/25 06:07:52;;;;;;;18.95;17.65;;;24.50;99.90;;;;;;5008485;28;20046;-74
2023/06/25 06:10:19;;;;;;;19.23;17.92;;;24.60;99.90;;;;;;4991739;28;20037;-74
2023/06/25 06:12:45;;;;;;;18.85;17.60;;;24.70;99.90;;;;;;4993367;28;20038;-74
2023/06/25 06:15:11;;;;;;;20.55;19.20;;;24.80;99.90;;;;;;5007123;28;20030;-74
2023/06/25 06:17:37;;;;;;;20.80;19.20;;;24.90;99.90;;;;;;4993261;28;20030;-74
2023/06/25 06:20:04;;;;;;;20.92;19.42;;;24.90;99.90;;;;;;4991901;28;20043;-74
2023/06/25 06:22:30;;;;;;;20.48;19.08;;;24.90;99.90;;;;;;5007997;28;20034;-74
2023/06/25 06:24:56;;;;;;;21.05;19.60;;;24.90;99.90;;;;;;4993080;28;20033;-74
2023/06/25 06:27:22;;;;;;;20.05;18.48;;;24.90;99.90;;;;;;5007886;28;20042;-74
2023/06/25 06:29:48;;;;;;;21.48;19.88;;;25.10;99.90;;;;;;4991334;28;20034;-74
2023/06/25 06:32:14;;;;;;;20.75;19.40;;;25.20;99.90;;;;;;4992331;28;20050;-73
2023/06/25 06:34:41;;;;;;;20.55;19.17;;;25.30;99.90;;;;;;4992924;28;20026;-74
2023/06/25 06:37:07;;;;;;;21.15;19.85;;;25.50;99.90;;;;;;4987982;28;20050;-73
2023/06/25 06:39:33;;;;;;;23.67;22.08;;;25.60;99.90;;;;;;4973886;28;20030;-73
2023/06/25 06:42:00;;;;;;;22.67;21.17;;;25.80;99.90;;;;;;4986748;28;20419;-74
2023/06/25 06:44:26;;;;;;;21.60;20.13;;;26.00;99.90;;;;;;4992716;28;20034;-74
2023/06/25 06:46:52;;;;;;;21.38;20.00;;;25.90;99.90;;;;;;5007293;28;20049;-74
2023/06/25 06:49:19;;;;;;;20.30;19.05;;;25.80;99.90;;;;;;5007672;28;20050;-74
2023/06/25 06:51:45;;;;;;;23.17;21.75;;;25.70;99.90;;;;;;4995096;28;20034;-73
2023/06/25 06:54:11;;;;;;;23.00;21.17;;;25.80;99.90;;;;;;4997059;28;20045;-74
2023/06/25 06:56:38;;;;;;;21.15;19.27;;;26.10;99.90;;;;;;4996537;28;20049;-74
2023/06/25 06:59:04;;;;;;;21.08;19.77;;;26.40;99.90;;;;;;4996449;28;20042;-74
2023/06/25 07:01:30;;;;;;;25.88;24.05;;;26.70;99.90;;;;;;5011352;28;20031;-74
2023/06/25 07:03:56;;;;;;;25.67;24.15;;;26.80;99.90;;;;;;4995675;28;20053;-74
2023/06/25 07:06:22;;;;;;;26.02;24.33;;;26.90;99.90;;;;;;4996402;28;20027;-74
2023/06/25 07:08:48;;;;;;;27.60;25.88;;;27.00;99.90;;;;;;5011611;28;20042;-74
2023/06/25 07:11:18;;;;;;;32.05;30.00;;;27.10;99.90;;;;;;4996273;28;20045;-73
2023/06/25 07:13:45;;;;;;;30.10;27.83;;;27.40;99.90;;;;;;4995029;28;20039;-73
2023/06/25 07:16:11;;;;;;;35.33;33.03;;;27.50;99.90;;;;;;5010935;28;20034;-74
2023/06/25 07:18:37;;;;;;;31.73;29.83;;;27.60;99.90;;;;;;4996418;28;20030;-74
2023/06/25 07:21:03;;;;;;;24.90;23.40;;;27.60;99.90;;;;;;4996102;28;20388;-74
2023/06/25 07:23:29;;;;;;;27.75;25.95;;;27.80;99.90;;;;;;4996483;28;20038;-74
2023/06/25 07:25:55;;;;;;;27.30;25.38;;;27.90;99.90;;;;;;4996069;28;20031;-74
2023/06/25 07:28:21;;;;;;;29.23;27.35;;;28.00;99.90;;;;;;4995857;28;20042;-74
2023/06/25 07:30:48;;;;;;;27.63;26.02;;;28.10;99.90;;;;;;5010632;28;20034;-74
2023/06/25 07:33:14;;;;;;;28.60;26.90;;;28.30;99.90;;;;;;4996056;28;20476;-74
2023/06/25 07:35:40;;;;;;;25.30;23.85;;;28.40;99.90;;;;;;5010964;28;20041;-74
2023/06/25 07:38:06;;;;;;;25.35;23.70;;;28.40;99.90;;;;;;4996301;28;20388;-74
2023/06/25 07:40:32;;;;;;;27.60;25.90;;;28.30;99.90;;;;;;4995789;28;20034;-74
2023/06/25 07:42:58;;;;;;;29.77;27.88;;;28.20;99.90;;;;;;4995818;28;20506;-74
2023/06/25 07:45:24;;;;;;;34.60;32.53;;;28.40;99.90;;;;;;4993987;28;20038;-74
2023/06/25 07:47:50;;;;;;;30.80;29.00;;;28.70;99.90;;;;;;4995617;28;20403;-74
2023/06/25 07:50:16;;;;;;;31.75;30.02;;;28.80;99.90;;;;;;4994609;28;20045;-74
2023/06/25 07:52:42;;;;;;;28.67;27.08;;;28.90;99.70;;;;;;5011069;28;20030;-75
2023/06/25 07:55:09;;;;;;;30.77;28.98;;;28.80;99.50;;;;;;4995763;28;20023;-74
2023/06/25 07:57:35;;;;;;;28.15;26.33;;;28.90;99.40;;;;;;4995262;28;20038;-73
2023/06/25 08:00:01;;;;;;;27.02;25.45;;;28.80;99.70;;;;;;4994419;28;20038;-74
2023/06/25 08:02:27;;;;;;;35.45;33.45;;;28.90;99.90;;;;;;5009212;28;20042;-74
2023/06/25 08:04:53;;;;;;;33.53;31.33;;;29.20;99.70;;;;;;4995714;28;20031;-73
2023/06/25 08:07:19;;;;;;;38.75;36.65;;;29.50;99.90;;;;;;4995394;28;20045;-74
2023/06/25 08:09:46;;;;;;;38.67;36.47;;;29.80;99.90;;;;;;4994126;28;20042;-74
2023/06/25 08:12:14;;;;;;;30.00;28.23;;;29.90;99.20;;;;;;5010056;28;20038;-74
2023/06/25 08:14:40;;;;;;;38.22;36.22;;;29.90;99.90;;;;;;4995651;28;20045;-74
2023/06/25 08:17:06;;;;;;;39.95;37.65;;;29.90;99.20;;;;;;5009696;28;20042;-74
2023/06/25 08:19:32;;;;;;;38.20;36.00;;;30.00;99.00;;;;;;5010623;28;20633;-73
2023/06/25 08:21:59;;;;;;;33.17;31.40;;;29.90;98.80;;;;;;4995065;28;20030;-73
2023/06/25 08:24:25;;;;;;;44.83;42.42;;;30.10;99.30;;;;;;5010284;28;20395;-73
2023/06/25 08:26:51;;;;;;;46.67;44.25;;;30.30;99.70;;;;;;4994725;28;20039;-73
2023/06/25 08:29:17;;;;;;;50.13;46.72;;;30.60;99.40;;;;;;5010108;28;20403;-74
2023/06/25 08:31:43;;;;;;;50.67;47.97;;;30.90;98.90;;;;;;5009606;28;20042;-73
2023/06/25 08:34:09;;;;;;;53.72;50.88;;;31.10;99.20;;;;;;4995026;28;20391;-74
2023/06/25 08:36:36;;;;;;;53.60;50.83;;;31.40;99.60;;;;;;5009006;28;20046;-74
2023/06/25 08:39:02;;;;;;;66.35;62.97;;;31.60;98.00;;;;;;4995309;28;20510;-73
2023/06/25 08:41:28;;;;;;;51.80;49.05;;;31.80;98.40;;;;;;4994402;28;20045;-74
2023/06/25 08:43:54;;;;;;;51.90;49.00;;;32.00;98.50;;;;;;4995097;28;20042;-74
2023/06/25 08:46:24;;;;;;;49.33;46.55;;;32.20;97.10;;;;;;5009071;28;20373;-73
2023/06/25 08:48:59;;;;;;;51.47;48.78;;;32.30;96.90;;;;;;5009405;28;20407;-74
2023/06/25 08:51:25;;;;;;;48.67;46.08;;;32.50;96.30;;;;;;4993473;28;20032;-74
2023/06/25 08:53:51;;;;;;;56.88;53.92;;;32.50;96.60;;;;;;5009952;28;20056;-73
2023/06/25 08:56:17;;;;;;;54.05;51.35;;;32.50;97.00;;;;;;5009144;28;20038;-73
2023/06/25 08:58:44;;;;;;;56.80;53.67;;;32.70;97.20;;;;;;5009846;28;20030;-74
2023/06/25 09:01:10;;;;;;;34.22;32.17;;;32.90;97.00;;;;;;5009003;28;20035;-74
2023/06/25 09:03:36;;;;;;;43.95;41.60;;;33.10;96.00;;;;;;5009423;28;20037;-75
2023/06/25 09:06:04;;;;;;;37.60;35.53;;;33.10;96.70;;;;;;4994374;28;20081;-74
2023/06/25 09:08:30;;;;;;;31.27;29.10;;;33.30;96.20;;;;;;5009246;28;20049;-74
2023/06/25 09:10:56;;;;;;;27.02;25.20;;;33.50;95.50;;;;;;4993751;28;20046;-74
2023/06/25 09:13:23;;;;;;;33.85;31.85;;;33.70;94.60;;;;;;5009532;28;20034;-74
2023/06/25 09:15:49;;;;;;;30.52;28.65;;;33.70;94.70;;;;;;4992552;28;20046;-74
2023/06/25 09:18:17;;;;;;;28.42;26.77;;;33.80;94.00;;;;;;5009491;28;20389;-73
2023/06/25 09:20:52;;;;;;;25.70;24.30;;;33.90;93.20;;;;;;5008986;28;20045;-74
2023/06/25 09:23:24;;;;;;;33.50;31.27;;;33.90;93.40;;;;;;5008933;28;20026;-73
2023/06/25 09:25:51;;;;;;;39.35;37.05;;;34.00;93.50;;;;;;5008985;28;20483;-74
2023/06/25 09:28:17;;;;;;;38.30;36.00;;;34.10;93.80;;;;;;5009211;28;20373;-73
2023/06/25 09:30:44;;;;;;;39.50;37.30;;;34.10;94.00;;;;;;5008177;28;20041;-74
2023/06/25 09:33:11;;;;;;;32.92;31.10;;;34.20;94.00;;;;;;5009003;28;20030;-74
2023/06/25 09:35:37;;;;;;;39.80;37.55;;;34.20;93.10;;;;;;5008508;28;20033;-74
2023/06/25 09:38:03;;;;;;;35.08;33.08;;;34.20;94.00;;;;;;5008780;28;20026;-74
2023/06/25 09:40:29;;;;;;;32.58;30.70;;;34.30;93.50;;;;;;4993712;28;20026;-74
2023/06/25 09:42:56;;;;;;;33.55;31.60;;;34.40;93.20;;;;;;5008843;28;20035;-74
2023/06/25 09:45:23;;;;;;;35.15;33.15;;;34.40;92.70;;;;;;4992973;28;20033;-74
2023/06/25 09:47:49;;;;;;;28.33;26.75;;;34.50;93.00;;;;;;5008515;28;20042;-74
2023/06/25 09:50:19;;;;;;;40.70;38.40;;;34.50;91.60;;;;;;4992152;28;20038;-74
2023/06/25 09:52:50;;;;;;;43.05;40.75;;;34.60;91.80;;;;;;4993483;28;20034;-74
2023/06/25 09:55:17;;;;;;;37.72;35.58;;;34.60;92.30;;;;;;5008161;28;20034;-74
2023/06/25 09:57:43;;;;;;;28.35;26.75;;;34.60;91.90;;;;;;5008819;28;20026;-74
2023/06/25 10:00:10;;;;;;;30.75;28.95;;;34.70;91.20;;;;;;5008233;28;20360;-73
2023/06/25 10:02:36;;;;;;;43.83;41.53;;;34.70;91.00;;;;;;5008427;28;20046;-74
2023/06/25 10:05:02;;;;;;;36.58;34.50;;;34.60;90.80;;;;;;5008510;28;20379;-73
2023/06/25 10:07:30;;;;;;;34.53;32.38;;;34.60;90.70;;;;;;5007854;28;20034;-74
2023/06/25 10:09:56;;;;;;;32.33;30.33;;;34.60;90.70;;;;;;5008358;28;20402;-74
2023/06/25 10:12:22;;;;;;;31.98;30.27;;;34.70;90.10;;;;;;5008241;28;20037;-74
2023/06/25 10:14:48;;;;;;;35.35;33.42;;;34.70;86.50;;;;;;4991997;28;20038;-74
2023/06/25 10:17:14;;;;;;;31.52;29.75;;;34.60;89.30;;;;;;5009171;28;20034;-73
2023/06/25 10:19:55;;;;;;;31.33;29.52;;;34.60;86.90;;;;;;5011661;28;20040;-74
2023/06/25 10:22:22;;;;;;;31.13;29.40;;;34.60;87.50;;;;;;5012289;28;20364;-74
2023/06/25 10:24:49;;;;;;;34.05;32.13;;;34.60;88.40;;;;;;5011830;28;20037;-74
2023/06/25 10:27:23;;;;;;;31.63;29.83;;;34.70;88.40;;;;;;5012308;28;20459;-74
2023/06/25 10:29:50;;;;;;;29.85;28.15;;;34.70;87.30;;;;;;5012695;28;20053;-74
2023/06/25 10:32:20;;;;;;;33.35;31.40;;;34.80;86.80;;;;;;5010973;28;20038;-74
2023/06/25 10:35:18;;;;;;;34.53;32.72;;;34.80;84.60;;;;;;5026673;28;20032;-74
2023/06/25 10:37:44;;;;;;;34.90;33.10;;;34.80;85.00;;;;;;5004172;28;20042;-74
2023/06/25 10:40:10;;;;;;;30.58;28.98;;;34.70;83.20;;;;;;5024462;28;20029;-74
2023/06/25 10:42:37;;;;;;;31.30;29.50;;;34.80;79.40;;;;;;5017981;28;20041;-73
2023/06/25 10:45:03;;;;;;;32.58;30.63;;;34.70;82.10;;;;;;5010909;28;20041;-73
2023/06/25 10:47:30;;;;;;;31.73;30.05;;;34.70;84.20;;;;;;5010928;28;20026;-74
2023/06/25 10:49:56;;;;;;;36.30;34.00;;;34.90;84.10;;;;;;5012307;28;20410;-74
2023/06/25 10:52:22;;;;;;;34.85;32.85;;;35.00;81.70;;;;;;5011746;28;20033;-74
2023/06/25 10:54:48;;;;;;;32.25;30.55;;;35.00;83.00;;;;;;5012479;28;20372;-74
2023/06/25 10:57:15;;;;;;;32.38;30.58;;;35.10;80.50;;;;;;5012209;28;20037;-74
2023/06/25 10:59:45;;;;;;;32.03;30.27;;;35.10;79.70;;;;;;5011181;28;20030;-74
2023/06/25 11:02:19;;;;;;;35.15;33.15;;;35.10;81.30;;;;;;5010779;28;20517;-74
2023/06/25 11:04:52;;;;;;;34.00;32.17;;;35.30;79.60;;;;;;5010798;28;20041;-73
2023/06/25 11:07:22;;;;;;;34.78;32.97;;;35.10;76.70;;;;;;5010992;28;20026;-74
2023/06/25 11:09:58;;;;;;;33.63;31.58;;;35.20;80.40;;;;;;5011082;28;20041;-74
2023/06/25 11:12:25;;;;;;;34.70;32.80;;;35.20;81.40;;;;;;5010987;28;20041;-74
2023/06/25 11:14:51;;;;;;;35.75;33.67;;;35.30;79.50;;;;;;4995012;28;20038;-74
2023/06/25 11:17:17;;;;;;;35.60;33.67;;;35.30;80.00;;;;;;5010408;28;20049;-74
2023/06/25 11:19:49;;;;;;;36.58;34.58;;;35.40;79.10;;;;;;5010706;28;20479;-74
2023/06/25 11:22:15;;;;;;;38.65;36.55;;;35.50;77.80;;;;;;5010899;28;20025;-73
2023/06/25 11:24:41;;;;;;;31.83;30.13;;;35.50;77.90;;;;;;5012316;28;20475;-74
2023/06/25 11:27:07;;;;;;;35.80;33.78;;;35.60;76.40;;;;;;5026695;28;20033;-74
2023/06/25 11:29:40;;;;;;;36.13;34.13;;;35.60;78.00;;;;;;5031913;28;20487;-73
2023/06/25 11:32:08;;;;;;;34.25;32.42;;;35.70;78.20;;;;;;5013936;28;20057;-74
2023/06/25 11:34:35;;;;;;;43.97;41.72;;;35.60;76.50;;;;;;5024206;28;20363;-74
2023/06/25 11:37:14;;;;;;;38.13;36.03;;;35.70;79.00;;;;;;5014713;28;20034;-74
2023/06/25 11:39:50;;;;;;;36.60;34.40;;;35.80;77.90;;;;;;5015828;28;20022;-74
2023/06/25 11:42:18;;;;;;;38.25;36.15;;;35.90;79.50;;;;;;5015489;28;20034;-74
2023/06/25 11:44:44;;;;;;;30.88;29.27;;;35.90;76.90;;;;;;5015961;28;20459;-74
2023/06/25 11:47:11;;;;;;;35.00;33.10;;;35.70;74.10;;;;;;5013724;28;20045;-74
2023/06/25 11:49:38;;;;;;;35.08;33.08;;;35.80;76.00;;;;;;5013824;28;20065;-74
2023/06/25 11:52:04;;;;;;;37.33;35.25;;;35.80;76.90;;;;;;5014185;28;20056;-74
2023/06/25 11:54:30;;;;;;;35.88;33.88;;;35.70;76.70;;;;;;5014427;28;20034;-74
2023/06/25 11:56:56;;;;;;;35.33;33.50;;;35.70;75.30;;;;;;5015324;28;20030;-74
2023/06/25 11:59:22;;;;;;;33.10;31.15;;;35.70;74.50;;;;;;5015357;28;20045;-74
2023/06/25 12:01:49;;;;;;;39.22;37.13;;;35.60;73.60;;;;;;5014725;28;20025;-74
2023/06/25 12:04:15;;;;;;;37.58;35.47;;;35.50;75.90;;;;;;5013716;28;20034;-73
2023/06/25 12:06:41;;;;;;;41.85;39.42;;;35.50;76.40;;;;;;5013898;28;20383;-74
2023/06/25 12:09:07;;;;;;;35.05;33.15;;;35.50;77.00;;;;;;5014970;28;20046;-74
2023/06/25 12:11:34;;;;;;;35.22;33.05;;;35.60;76.60;;;;;;5014977;28;20030;-73
2023/06/25 12:14:00;;;;;;;36.63;34.75;;;35.70;75.80;;;;;;5014078;28;20368;-74
2023/06/25 12:16:26;;;;;;;34.72;32.83;;;35.70;73.70;;;;;;5013137;28;20045;-74
2023/06/25 12:18:52;;;;;;;34.70;32.85;;;35.60;73.40;;;;;;5013551;28;20391;-74
2023/06/25 12:21:18;;;;;;;33.28;31.45;;;35.60;74.60;;;;;;5014612;28;20033;-74
2023/06/25 12:23:44;;;;;;;33.05;31.02;;;35.70;72.90;;;;;;5013791;28;20391;-74
2023/06/25 12:26:10;;;;;;;35.38;33.47;;;35.70;74.30;;;;;;5014836;28;20025;-74